Granger, Texas
Current Conditions -  °F | °C
As of 9:18 PM on Saturday 20 Dec 2014 (Local Time) from KGRK Reporting Station
Overcast Overcast  
Wind Chill: 45°   Ceiling: 700
Heat Index: 48°   Visibility: 7mi
Dew Point: 46°   Wind: 7mph
Humidity: 93%   Direction: 140°SE
Pressure: 30.17"   Gusts: NA
Location:  30.72°N, 97.44°W
Report Text: KGRK 210318Z AUTO 14006KT 7SM BKN007 OVC023 09/08 A3017 RMK AO2 CIG 007V023
Loading
Personal Weather Stations






























Interactive Weather Map New forecast layout! Learn more

10-Day Weather Forecast

Advertisements
Track Severe Weather on mobile